Eek, AK

4:09 PM AKDT on July 04, 2015 (GMT -0800)
Quinhagak | | Change Station
CLOSE
Current Station
Airport
Location: Quinhagak|Kwinhagak Airport,
Elevation: 43 ft
Nearby Weather Stations

Elev 43 ft 59.76 °N, 161.85 °W | Updated 13 minutes ago

Light Rain
Light Rain
58 °F
Feels Like 58 °F
N
13
Wind Variable Wind from NE

Today
High -- | Low -- °F
--% Chance of Precip.
Yesterday
High -- | Low -- °F
Precip. -- in
5:35 AM 0:08 AM
Waning Gibbous, 89% visible
Pressure 29.79 in
Visibility 10.0 miles
Clouds Scattered Clouds 1500 ft
Mostly Cloudy 2200 ft
Overcast 3600 ft
Dew Point 54 °F
Humidity 87%
Rainfall 0.06 in
Snow Depth Not available.
UV 2 out of 12
Pollen Not available.
Air Quality Not available.
Flu Activity Not available.
METAR PAQH 042356Z AUTO 04011KT 10SM -RA SCT015 BKN022 OVC036 14/12 A2979 RMK AO2 SLP088 P0001 60006 T01440122 10150 20133 56004

More Conditions Fewer Conditions

Pressure 29.79 in
Visibility 10.0 miles
Clouds Scattered Clouds 1500 ft
Mostly Cloudy 2200 ft
Overcast 3600 ft
Dew Point 54 °F
Humidity 87%
Rainfall 0.06 in
Snow Depth Not available.
UV 2 out of 12
Pollen Not available.
Air Quality Not available.
Flu Activity Not available.
METAR PAQH 042356Z AUTO 04011KT 10SM -RA SCT015 BKN022 OVC036 14/12 A2979 RMK AO2 SLP088 P0001 60006 T01440122 10150 20133 56004

More Conditions Fewer Conditions

10-Day Weather Forecast

×

Almanac

Astronomy

Jul. 04, 2015 Rise Set
Actual Time
Civil Twilight
Nautical Twilight
Astronomical Twilight
Moon
Length of Visible Light
Length of Day
Tomorrow will be .
, % of the Moon is Illuminated

Today's Extremes

State Highs State Lows

Community

WunderPhotos

Upload Photos

1,835,120 photos uploaded!

WunderBlogs® & News

Nearby

Air Quality

  Air Quality AQ Index Pollutant
Not available.

Snow Depth

Station Depth Elevation

Earthquake Activity

City Distance Mag. Time & Date
Minimum magnitude displayed is 2.5.

Coastal Water Temperatures

Place Temperature

Stations

Nearby Weather Stations

Station Location Temp. Windchill Dew Point Humidity Wind Precip. Elev Updated Type